sensor_id;sensor_type;location;lat;lon;timestamp;P1;durP1;ratioP1;P2;durP2;ratioP2
58681;SDS011;44460;40.162;18.294;2022-09-01T00:02:04;15.45;;;8.05;;
58681;SDS011;44460;40.162;18.294;2022-09-01T00:04:33;14.93;;;7.18;;
58681;SDS011;44460;40.162;18.294;2022-09-01T00:07:00;10.90;;;7.00;;
58681;SDS011;44460;40.162;18.294;2022-09-01T00:09:25;11.88;;;6.57;;
58681;SDS011;44460;40.162;18.294;2022-09-01T00:11:51;12.48;;;6.47;;
58681;SDS011;44460;40.162;18.294;2022-09-01T00:14:23;10.43;;;6.80;;
58681;SDS011;44460;40.162;18.294;2022-09-01T00:16:49;12.90;;;6.93;;
58681;SDS011;44460;40.162;18.294;2022-09-01T00:19:14;13.93;;;6.93;;
58681;SDS011;44460;40.162;18.294;2022-09-01T00:21:41;10.32;;;6.50;;
58681;SDS011;44460;40.162;18.294;2022-09-01T00:24:06;14.82;;;6.95;;
58681;SDS011;44460;40.162;18.294;2022-09-01T00:26:32;10.25;;;6.60;;
58681;SDS011;44460;40.162;18.294;2022-09-01T00:28:57;9.65;;;6.18;;
58681;SDS011;44460;40.162;18.294;2022-09-01T00:31:26;12.57;;;6.20;;
58681;SDS011;44460;40.162;18.294;2022-09-01T00:33:52;12.70;;;6.45;;
58681;SDS011;44460;40.162;18.294;2022-09-01T00:36:18;12.10;;;6.22;;
58681;SDS011;44460;40.162;18.294;2022-09-01T00:38:44;12.07;;;6.85;;
58681;SDS011;44460;40.162;18.294;2022-09-01T00:41:09;13.02;;;6.93;;
58681;SDS011;44460;40.162;18.294;2022-09-01T00:46:01;10.75;;;6.28;;
58681;SDS011;44460;40.162;18.294;2022-09-01T00:48:27;11.38;;;6.50;;
58681;SDS011;44460;40.162;18.294;2022-09-01T00:50:52;12.23;;;5.90;;
58681;SDS011;44460;40.162;18.294;2022-09-01T00:53:18;11.40;;;6.35;;
58681;SDS011;44460;40.162;18.294;2022-09-01T00:55:43;10.45;;;6.10;;
58681;SDS011;44460;40.162;18.294;2022-09-01T00:58:09;12.25;;;5.68;;
58681;SDS011;44460;40.162;18.294;2022-09-01T01:00:35;12.20;;;6.30;;
58681;SDS011;44460;40.162;18.294;2022-09-01T01:03:09;9.88;;;5.60;;
58681;SDS011;44460;40.162;18.294;2022-09-01T01:05:36;11.02;;;5.85;;
58681;SDS011;44460;40.162;18.294;2022-09-01T01:08:04;13.18;;;5.57;;
58681;SDS011;44460;40.162;18.294;2022-09-01T01:10:32;12.52;;;5.32;;
58681;SDS011;44460;40.162;18.294;2022-09-01T01:13:00;9.45;;;6.40;;
58681;SDS011;44460;40.162;18.294;2022-09-01T01:15:27;10.95;;;5.90;;
58681;SDS011;44460;40.162;18.294;2022-09-01T01:17:54;12.40;;;5.93;;
58681;SDS011;44460;40.162;18.294;2022-09-01T01:20:20;13.35;;;5.75;;
58681;SDS011;44460;40.162;18.294;2022-09-01T01:28:25;10.90;;;6.25;;
58681;SDS011;44460;40.162;18.294;2022-09-01T01:30:54;10.48;;;6.00;;
58681;SDS011;44460;40.162;18.294;2022-09-01T01:33:24;10.88;;;6.00;;
58681;SDS011;44460;40.162;18.294;2022-09-01T01:35:50;9.32;;;6.15;;
58681;SDS011;44460;40.162;18.294;2022-09-01T01:38:17;10.20;;;6.30;;
58681;SDS011;44460;40.162;18.294;2022-09-01T01:40:45;12.45;;;6.22;;
58681;SDS011;44460;40.162;18.294;2022-09-01T01:43:10;16.52;;;6.55;;
58681;SDS011;44460;40.162;18.294;2022-09-01T01:45:47;11.93;;;6.70;;
58681;SDS011;44460;40.162;18.294;2022-09-01T01:48:17;10.18;;;6.35;;
58681;SDS011;44460;40.162;18.294;2022-09-01T01:50:47;12.88;;;6.63;;
58681;SDS011;44460;40.162;18.294;2022-09-01T01:53:13;12.88;;;6.57;;
58681;SDS011;44460;40.162;18.294;2022-09-01T01:55:41;15.68;;;6.30;;
58681;SDS011;44460;40.162;18.294;2022-09-01T01:58:07;16.52;;;6.82;;
58681;SDS011;44460;40.162;18.294;2022-09-01T02:00:36;13.90;;;6.97;;
58681;SDS011;44460;40.162;18.294;2022-09-01T02:03:02;12.93;;;7.07;;
58681;SDS011;44460;40.162;18.294;2022-09-01T02:05:31;9.70;;;6.82;;
58681;SDS011;44460;40.162;18.294;2022-09-01T02:07:59;15.00;;;7.25;;
58681;SDS011;44460;40.162;18.294;2022-09-01T02:10:28;12.80;;;6.40;;
58681;SDS011;44460;40.162;18.294;2022-09-01T02:12:55;12.00;;;6.95;;
58681;SDS011;44460;40.162;18.294;2022-09-01T02:15:29;14.32;;;7.10;;
58681;SDS011;44460;40.162;18.294;2022-09-01T02:17:54;12.07;;;6.72;;
58681;SDS011;44460;40.162;18.294;2022-09-01T02:20:24;11.57;;;6.68;;
58681;SDS011;44460;40.162;18.294;2022-09-01T02:22:53;12.45;;;6.57;;
58681;SDS011;44460;40.162;18.294;2022-09-01T02:25:20;12.52;;;8.05;;
58681;SDS011;44460;40.162;18.294;2022-09-01T02:27:48;12.10;;;7.28;;
58681;SDS011;44460;40.162;18.294;2022-09-01T02:30:20;10.93;;;6.65;;
58681;SDS011;44460;40.162;18.294;2022-09-01T02:32:46;9.52;;;7.00;;
58681;SDS011;44460;40.162;18.294;2022-09-01T02:35:12;11.95;;;6.55;;
58681;SDS011;44460;40.162;18.294;2022-09-01T02:37:40;14.05;;;7.13;;
58681;SDS011;44460;40.162;18.294;2022-09-01T02:40:07;11.85;;;6.88;;
58681;SDS011;44460;40.162;18.294;2022-09-01T02:42:35;9.47;;;6.33;;
58681;SDS011;44460;40.162;18.294;2022-09-01T02:45:02;9.73;;;6.28;;
58681;SDS011;44460;40.162;18.294;2022-09-01T02:47:27;12.05;;;6.80;;
58681;SDS011;44460;40.162;18.294;2022-09-01T02:49:53;9.70;;;6.28;;
58681;SDS011;44460;40.162;18.294;2022-09-01T02:52:18;14.55;;;6.80;;
58681;SDS011;44460;40.162;18.294;2022-09-01T02:54:47;11.90;;;6.95;;
58681;SDS011;44460;40.162;18.294;2022-09-01T02:57:14;15.20;;;7.38;;
58681;SDS011;44460;40.162;18.294;2022-09-01T02:59:39;13.95;;;7.60;;
58681;SDS011;44460;40.162;18.294;2022-09-01T03:02:06;15.50;;;7.60;;
58681;SDS011;44460;40.162;18.294;2022-09-01T03:04:32;15.38;;;7.70;;
58681;SDS011;44460;40.162;18.294;2022-09-01T03:07:02;11.75;;;7.60;;
58681;SDS011;44460;40.162;18.294;2022-09-01T03:09:28;12.23;;;7.60;;
58681;SDS011;44460;40.162;18.294;2022-09-01T03:11:54;11.75;;;7.65;;
58681;SDS011;44460;40.162;18.294;2022-09-01T03:16:48;14.10;;;7.93;;
58681;SDS011;44460;40.162;18.294;2022-09-01T03:19:15;12.63;;;8.25;;
58681;SDS011;44460;40.162;18.294;2022-09-01T03:21:43;10.80;;;7.95;;
58681;SDS011;44460;40.162;18.294;2022-09-01T03:24:11;11.80;;;8.10;;
58681;SDS011;44460;40.162;18.294;2022-09-01T03:26:39;14.27;;;8.05;;
58681;SDS011;44460;40.162;18.294;2022-09-01T03:29:06;16.08;;;8.00;;
58681;SDS011;44460;40.162;18.294;2022-09-01T03:31:32;10.68;;;8.13;;
58681;SDS011;44460;40.162;18.294;2022-09-01T03:34:00;13.57;;;8.35;;
58681;SDS011;44460;40.162;18.294;2022-09-01T03:36:30;15.40;;;8.27;;
58681;SDS011;44460;40.162;18.294;2022-09-01T03:38:58;12.55;;;7.85;;
58681;SDS011;44460;40.162;18.294;2022-09-01T03:41:25;10.98;;;7.55;;
58681;SDS011;44460;40.162;18.294;2022-09-01T03:43:53;16.52;;;7.40;;
58681;SDS011;44460;40.162;18.294;2022-09-01T03:46:27;11.23;;;7.78;;
58681;SDS011;44460;40.162;18.294;2022-09-01T03:48:55;11.57;;;7.35;;
58681;SDS011;44460;40.162;18.294;2022-09-01T03:51:23;12.18;;;7.40;;
58681;SDS011;44460;40.162;18.294;2022-09-01T03:53:50;12.77;;;8.68;;
58681;SDS011;44460;40.162;18.294;2022-09-01T03:56:19;12.75;;;7.80;;
58681;SDS011;44460;40.162;18.294;2022-09-01T03:58:46;14.27;;;8.68;;
58681;SDS011;44460;40.162;18.294;2022-09-01T04:01:13;14.10;;;8.32;;
58681;SDS011;44460;40.162;18.294;2022-09-01T04:03:40;12.88;;;8.65;;
58681;SDS011;44460;40.162;18.294;2022-09-01T04:06:07;12.93;;;8.77;;
58681;SDS011;44460;40.162;18.294;2022-09-01T04:08:32;13.07;;;7.50;;
58681;SDS011;44460;40.162;18.294;2022-09-01T04:11:01;14.55;;;7.85;;
58681;SDS011;44460;40.162;18.294;2022-09-01T04:13:36;12.93;;;8.38;;
58681;SDS011;44460;40.162;18.294;2022-09-01T04:16:03;14.73;;;7.45;;
58681;SDS011;44460;40.162;18.294;2022-09-01T04:18:35;16.08;;;7.95;;
58681;SDS011;44460;40.162;18.294;2022-09-01T04:21:01;17.42;;;7.80;;
58681;SDS011;44460;40.162;18.294;2022-09-01T04:23:30;18.10;;;7.45;;
58681;SDS011;44460;40.162;18.294;2022-09-01T04:26:06;16.00;;;8.20;;
58681;SDS011;44460;40.162;18.294;2022-09-01T04:28:37;11.52;;;7.10;;
58681;SDS011;44460;40.162;18.294;2022-09-01T04:31:04;10.32;;;6.82;;
58681;SDS011;44460;40.162;18.294;2022-09-01T04:33:35;21.15;;;8.63;;
58681;SDS011;44460;40.162;18.294;2022-09-01T04:36:04;21.65;;;7.38;;
58681;SDS011;44460;40.162;18.294;2022-09-01T04:38:30;12.98;;;6.95;;
58681;SDS011;44460;40.162;18.294;2022-09-01T04:40:56;12.93;;;6.63;;
58681;SDS011;44460;40.162;18.294;2022-09-01T04:43:23;13.90;;;7.10;;
58681;SDS011;44460;40.162;18.294;2022-09-01T04:45:48;14.95;;;7.47;;
58681;SDS011;44460;40.162;18.294;2022-09-01T04:48:17;13.35;;;7.38;;
58681;SDS011;44460;40.162;18.294;2022-09-01T04:50:43;11.25;;;7.65;;
58681;SDS011;44460;40.162;18.294;2022-09-01T04:53:25;16.77;;;8.40;;
58681;SDS011;44460;40.162;18.294;2022-09-01T04:55:52;13.68;;;8.13;;
58681;SDS011;44460;40.162;18.294;2022-09-01T04:58:21;14.38;;;7.38;;
58681;SDS011;44460;40.162;18.294;2022-09-01T05:00:47;16.05;;;8.63;;
58681;SDS011;44460;40.162;18.294;2022-09-01T05:03:17;18.50;;;9.50;;
58681;SDS011;44460;40.162;18.294;2022-09-01T05:06:15;13.52;;;8.55;;
58681;SDS011;44460;40.162;18.294;2022-09-01T05:08:47;16.60;;;9.60;;
58681;SDS011;44460;40.162;18.294;2022-09-01T05:11:24;17.48;;;8.40;;
58681;SDS011;44460;40.162;18.294;2022-09-01T05:13:57;14.85;;;8.23;;
58681;SDS011;44460;40.162;18.294;2022-09-01T05:16:23;14.23;;;7.63;;
58681;SDS011;44460;40.162;18.294;2022-09-01T05:18:54;17.98;;;7.65;;
58681;SDS011;44460;40.162;18.294;2022-09-01T05:21:22;28.33;;;8.48;;
58681;SDS011;44460;40.162;18.294;2022-09-01T05:23:50;19.63;;;8.10;;
58681;SDS011;44460;40.162;18.294;2022-09-01T05:26:18;16.38;;;7.22;;
58681;SDS011;44460;40.162;18.294;2022-09-01T05:28:45;15.15;;;6.22;;
58681;SDS011;44460;40.162;18.294;2022-09-01T05:31:13;22.95;;;7.53;;
58681;SDS011;44460;40.162;18.294;2022-09-01T05:33:39;20.65;;;9.85;;
58681;SDS011;44460;40.162;18.294;2022-09-01T05:36:11;36.10;;;9.98;;
58681;SDS011;44460;40.162;18.294;2022-09-01T05:38:37;20.83;;;6.88;;
58681;SDS011;44460;40.162;18.294;2022-09-01T05:41:08;24.77;;;7.55;;
58681;SDS011;44460;40.162;18.294;2022-09-01T05:46:05;13.63;;;6.05;;
58681;SDS011;44460;40.162;18.294;2022-09-01T05:48:31;11.95;;;6.20;;
58681;SDS011;44460;40.162;18.294;2022-09-01T05:51:08;11.93;;;5.30;;
58681;SDS011;44460;40.162;18.294;2022-09-01T05:53:34;14.40;;;4.90;;
58681;SDS011;44460;40.162;18.294;2022-09-01T05:56:00;15.80;;;5.30;;
58681;SDS011;44460;40.162;18.294;2022-09-01T05:58:31;15.75;;;5.80;;
58681;SDS011;44460;40.162;18.294;2022-09-01T06:00:57;11.82;;;4.90;;
58681;SDS011;44460;40.162;18.294;2022-09-01T06:03:24;11.52;;;5.20;;
58681;SDS011;44460;40.162;18.294;2022-09-01T06:05:52;9.50;;;4.90;;
58681;SDS011;44460;40.162;18.294;2022-09-01T06:08:20;9.98;;;4.50;;
58681;SDS011;44460;40.162;18.294;2022-09-01T06:10:47;8.60;;;4.68;;
58681;SDS011;44460;40.162;18.294;2022-09-01T06:15:40;13.15;;;4.70;;
58681;SDS011;44460;40.162;18.294;2022-09-01T06:18:10;17.88;;;5.13;;
58681;SDS011;44460;40.162;18.294;2022-09-01T06:20:45;15.65;;;5.05;;
58681;SDS011;44460;40.162;18.294;2022-09-01T06:23:11;11.35;;;4.63;;
58681;SDS011;44460;40.162;18.294;2022-09-01T06:25:40;15.30;;;5.05;;
58681;SDS011;44460;40.162;18.294;2022-09-01T06:28:10;11.95;;;4.90;;
58681;SDS011;44460;40.162;18.294;2022-09-01T06:30:40;10.73;;;4.80;;
58681;SDS011;44460;40.162;18.294;2022-09-01T06:33:11;21.77;;;5.47;;
58681;SDS011;44460;40.162;18.294;2022-09-01T06:35:42;17.17;;;5.53;;
58681;SDS011;44460;40.162;18.294;2022-09-01T06:38:10;7.30;;;3.55;;
58681;SDS011;44460;40.162;18.294;2022-09-01T06:40:40;12.90;;;4.72;;
58681;SDS011;44460;40.162;18.294;2022-09-01T06:45:53;19.50;;;5.53;;
58681;SDS011;44460;40.162;18.294;2022-09-01T06:48:21;13.60;;;4.38;;
58681;SDS011;44460;40.162;18.294;2022-09-01T06:50:50;13.30;;;5.75;;
58681;SDS011;44460;40.162;18.294;2022-09-01T06:53:16;7.95;;;3.75;;
58681;SDS011;44460;40.162;18.294;2022-09-01T06:55:47;9.52;;;3.40;;
58681;SDS011;44460;40.162;18.294;2022-09-01T06:58:13;11.20;;;4.18;;
58681;SDS011;44460;40.162;18.294;2022-09-01T07:00:44;13.07;;;4.32;;
58681;SDS011;44460;40.162;18.294;2022-09-01T07:03:13;9.40;;;4.20;;
58681;SDS011;44460;40.162;18.294;2022-09-01T07:06:03;6.30;;;3.22;;
58681;SDS011;44460;40.162;18.294;2022-09-01T07:09:05;10.52;;;3.40;;
58681;SDS011;44460;40.162;18.294;2022-09-01T07:11:33;10.45;;;3.72;;
58681;SDS011;44460;40.162;18.294;2022-09-01T07:14:01;9.27;;;3.65;;
58681;SDS011;44460;40.162;18.294;2022-09-01T07:16:30;12.10;;;4.20;;
58681;SDS011;44460;40.162;18.294;2022-09-01T07:18:59;11.45;;;3.63;;
58681;SDS011;44460;40.162;18.294;2022-09-01T07:21:28;11.32;;;4.53;;
58681;SDS011;44460;40.162;18.294;2022-09-01T07:23:57;10.57;;;3.80;;
58681;SDS011;44460;40.162;18.294;2022-09-01T07:26:26;9.13;;;3.75;;
58681;SDS011;44460;40.162;18.294;2022-09-01T07:28:54;6.20;;;3.65;;
58681;SDS011;44460;40.162;18.294;2022-09-01T07:31:25;10.73;;;4.05;;
58681;SDS011;44460;40.162;18.294;2022-09-01T07:33:54;11.27;;;3.50;;
58681;SDS011;44460;40.162;18.294;2022-09-01T07:36:25;13.35;;;4.32;;
58681;SDS011;44460;40.162;18.294;2022-09-01T07:38:51;13.20;;;3.73;;
58681;SDS011;44460;40.162;18.294;2022-09-01T07:41:20;8.23;;;3.92;;
58681;SDS011;44460;40.162;18.294;2022-09-01T07:43:48;8.45;;;3.50;;
58681;SDS011;44460;40.162;18.294;2022-09-01T07:46:26;9.60;;;3.42;;
58681;SDS011;44460;40.162;18.294;2022-09-01T07:48:53;11.02;;;5.13;;
58681;SDS011;44460;40.162;18.294;2022-09-01T07:53:46;7.97;;;3.80;;
58681;SDS011;44460;40.162;18.294;2022-09-01T07:56:16;8.68;;;3.58;;
58681;SDS011;44460;40.162;18.294;2022-09-01T07:58:46;6.90;;;3.38;;
58681;SDS011;44460;40.162;18.294;2022-09-01T08:01:18;9.25;;;3.72;;
58681;SDS011;44460;40.162;18.294;2022-09-01T08:03:45;7.00;;;3.35;;
58681;SDS011;44460;40.162;18.294;2022-09-01T08:06:13;10.32;;;3.72;;
58681;SDS011;44460;40.162;18.294;2022-09-01T08:08:40;8.63;;;4.00;;
58681;SDS011;44460;40.162;18.294;2022-09-01T08:11:06;8.95;;;3.72;;
58681;SDS011;44460;40.162;18.294;2022-09-01T08:13:33;14.32;;;3.63;;
58681;SDS011;44460;40.162;18.294;2022-09-01T08:16:02;10.20;;;3.90;;
58681;SDS011;44460;40.162;18.294;2022-09-01T08:18:27;10.10;;;3.47;;
58681;SDS011;44460;40.162;18.294;2022-09-01T08:20:53;6.90;;;3.40;;
58681;SDS011;44460;40.162;18.294;2022-09-01T08:23:33;8.60;;;3.67;;
58681;SDS011;44460;40.162;18.294;2022-09-01T08:26:05;20.17;;;13.93;;
58681;SDS011;44460;40.162;18.294;2022-09-01T08:28:32;8.40;;;3.38;;
58681;SDS011;44460;40.162;18.294;2022-09-01T08:31:05;7.33;;;3.43;;
58681;SDS011;44460;40.162;18.294;2022-09-01T08:40:34;8.52;;;3.55;;
58681;SDS011;44460;40.162;18.294;2022-09-01T08:48:39;7.45;;;3.08;;
58681;SDS011;44460;40.162;18.294;2022-09-01T08:51:28;8.95;;;3.30;;
58681;SDS011;44460;40.162;18.294;2022-09-01T08:54:05;10.73;;;3.30;;
58681;SDS011;44460;40.162;18.294;2022-09-01T08:56:32;7.47;;;3.55;;
58681;SDS011;44460;40.162;18.294;2022-09-01T08:59:00;7.57;;;3.55;;
58681;SDS011;44460;40.162;18.294;2022-09-01T09:01:44;8.23;;;3.33;;
58681;SDS011;44460;40.162;18.294;2022-09-01T09:04:20;12.73;;;4.18;;
58681;SDS011;44460;40.162;18.294;2022-09-01T09:07:02;8.45;;;3.40;;
58681;SDS011;44460;40.162;18.294;2022-09-01T09:09:33;9.75;;;3.90;;
58681;SDS011;44460;40.162;18.294;2022-09-01T09:12:06;7.28;;;3.22;;
58681;SDS011;44460;40.162;18.294;2022-09-01T09:14:44;10.60;;;4.07;;
58681;SDS011;44460;40.162;18.294;2022-09-01T09:17:12;9.32;;;3.10;;
58681;SDS011;44460;40.162;18.294;2022-09-01T09:19:39;10.27;;;3.77;;
58681;SDS011;44460;40.162;18.294;2022-09-01T09:22:13;9.05;;;3.47;;
58681;SDS011;44460;40.162;18.294;2022-09-01T09:27:25;10.57;;;3.60;;
58681;SDS011;44460;40.162;18.294;2022-09-01T09:29:55;8.30;;;3.53;;
58681;SDS011;44460;40.162;18.294;2022-09-01T09:32:23;8.88;;;3.95;;
58681;SDS011;44460;40.162;18.294;2022-09-01T09:34:49;14.30;;;3.80;;
58681;SDS011;44460;40.162;18.294;2022-09-01T09:40:03;12.57;;;4.05;;
58681;SDS011;44460;40.162;18.294;2022-09-01T09:42:31;15.25;;;4.22;;
58681;SDS011;44460;40.162;18.294;2022-09-01T09:44:57;10.20;;;3.70;;
58681;SDS011;44460;40.162;18.294;2022-09-01T09:47:34;12.68;;;4.28;;
58681;SDS011;44460;40.162;18.294;2022-09-01T09:50:10;11.45;;;4.22;;
58681;SDS011;44460;40.162;18.294;2022-09-01T09:52:36;12.13;;;4.90;;
58681;SDS011;44460;40.162;18.294;2022-09-01T09:55:06;10.43;;;4.85;;
58681;SDS011;44460;40.162;18.294;2022-09-01T09:57:41;7.25;;;3.85;;
58681;SDS011;44460;40.162;18.294;2022-09-01T10:00:09;22.73;;;11.07;;
58681;SDS011;44460;40.162;18.294;2022-09-01T10:02:41;14.20;;;4.10;;
58681;SDS011;44460;40.162;18.294;2022-09-01T10:07:48;12.45;;;4.10;;
58681;SDS011;44460;40.162;18.294;2022-09-01T10:12:56;11.48;;;5.50;;
58681;SDS011;44460;40.162;18.294;2022-09-01T10:15:22;12.05;;;6.35;;
58681;SDS011;44460;40.162;18.294;2022-09-01T10:17:48;14.10;;;4.30;;
58681;SDS011;44460;40.162;18.294;2022-09-01T10:20:17;9.65;;;3.88;;
58681;SDS011;44460;40.162;18.294;2022-09-01T10:22:45;9.30;;;4.10;;
58681;SDS011;44460;40.162;18.294;2022-09-01T10:28:16;11.15;;;3.88;;
58681;SDS011;44460;40.162;18.294;2022-09-01T10:30:43;9.93;;;4.07;;
58681;SDS011;44460;40.162;18.294;2022-09-01T10:33:10;11.88;;;4.22;;
58681;SDS011;44460;40.162;18.294;2022-09-01T10:35:38;11.23;;;4.20;;
58681;SDS011;44460;40.162;18.294;2022-09-01T10:38:20;9.82;;;4.00;;
58681;SDS011;44460;40.162;18.294;2022-09-01T10:40:47;14.30;;;4.03;;
58681;SDS011;44460;40.162;18.294;2022-09-01T10:43:22;9.55;;;3.85;;
58681;SDS011;44460;40.162;18.294;2022-09-01T10:45:48;9.43;;;3.78;;
58681;SDS011;44460;40.162;18.294;2022-09-01T10:50:47;7.22;;;3.88;;
58681;SDS011;44460;40.162;18.294;2022-09-01T10:53:56;8.48;;;3.53;;
58681;SDS011;44460;40.162;18.294;2022-09-01T10:58:59;14.52;;;4.35;;
58681;SDS011;44460;40.162;18.294;2022-09-01T11:04:12;13.35;;;4.72;;
58681;SDS011;44460;40.162;18.294;2022-09-01T11:14:29;10.90;;;3.50;;
58681;SDS011;44460;40.162;18.294;2022-09-01T11:19:43;6.95;;;3.17;;
58681;SDS011;44460;40.162;18.294;2022-09-01T11:27:04;10.60;;;3.28;;
58681;SDS011;44460;40.162;18.294;2022-09-01T11:32:31;11.70;;;3.30;;
58681;SDS011;44460;40.162;18.294;2022-09-01T11:34:58;7.70;;;3.30;;
58681;SDS011;44460;40.162;18.294;2022-09-01T11:37:25;8.38;;;3.30;;
58681;SDS011;44460;40.162;18.294;2022-09-01T11:39:53;6.68;;;3.42;;
58681;SDS011;44460;40.162;18.294;2022-09-01T11:42:23;12.00;;;3.13;;
58681;SDS011;44460;40.162;18.294;2022-09-01T11:47:23;12.02;;;3.30;;
58681;SDS011;44460;40.162;18.294;2022-09-01T11:52:19;10.55;;;3.35;;
58681;SDS011;44460;40.162;18.294;2022-09-01T11:54:45;7.25;;;3.40;;
58681;SDS011;44460;40.162;18.294;2022-09-01T11:57:31;7.72;;;3.58;;
58681;SDS011;44460;40.162;18.294;2022-09-01T11:59:57;8.52;;;3.47;;
58681;SDS011;44460;40.162;18.294;2022-09-01T12:02:25;9.07;;;2.90;;
58681;SDS011;44460;40.162;18.294;2022-09-01T12:04:51;7.10;;;3.10;;
58681;SDS011;44460;40.162;18.294;2022-09-01T12:07:24;7.45;;;2.72;;
58681;SDS011;44460;40.162;18.294;2022-09-01T12:09:51;13.25;;;4.40;;
58681;SDS011;44460;40.162;18.294;2022-09-01T12:12:27;6.55;;;3.10;;
58681;SDS011;44460;40.162;18.294;2022-09-01T12:17:48;10.05;;;3.05;;
58681;SDS011;44460;40.162;18.294;2022-09-01T12:22:49;6.25;;;2.80;;
58681;SDS011;44460;40.162;18.294;2022-09-01T12:25:22;6.13;;;2.90;;
58681;SDS011;44460;40.162;18.294;2022-09-01T12:27:49;9.35;;;2.70;;
58681;SDS011;44460;40.162;18.294;2022-09-01T12:30:14;8.03;;;2.53;;
58681;SDS011;44460;40.162;18.294;2022-09-01T12:32:40;7.00;;;2.50;;
58681;SDS011;44460;40.162;18.294;2022-09-01T12:35:12;9.85;;;2.80;;
58681;SDS011;44460;40.162;18.294;2022-09-01T12:37:39;6.95;;;2.55;;
58681;SDS011;44460;40.162;18.294;2022-09-01T12:40:04;13.43;;;2.80;;
58681;SDS011;44460;40.162;18.294;2022-09-01T12:42:31;7.47;;;2.55;;
58681;SDS011;44460;40.162;18.294;2022-09-01T12:44:57;10.77;;;2.85;;
58681;SDS011;44460;40.162;18.294;2022-09-01T12:49:58;7.07;;;3.38;;
58681;SDS011;44460;40.162;18.294;2022-09-01T12:52:25;6.82;;;2.78;;
58681;SDS011;44460;40.162;18.294;2022-09-01T12:54:52;12.05;;;3.40;;
58681;SDS011;44460;40.162;18.294;2022-09-01T12:57:26;9.65;;;2.75;;
58681;SDS011;44460;40.162;18.294;2022-09-01T13:02:45;7.45;;;2.40;;
58681;SDS011;44460;40.162;18.294;2022-09-01T13:07:55;6.10;;;2.10;;
58681;SDS011;44460;40.162;18.294;2022-09-01T13:10:25;8.23;;;2.70;;
58681;SDS011;44460;40.162;18.294;2022-09-01T13:12:53;6.45;;;2.42;;
58681;SDS011;44460;40.162;18.294;2022-09-01T13:15:18;5.70;;;2.40;;
58681;SDS011;44460;40.162;18.294;2022-09-01T13:17:45;5.25;;;1.88;;
58681;SDS011;44460;40.162;18.294;2022-09-01T13:20:10;5.43;;;1.83;;
58681;SDS011;44460;40.162;18.294;2022-09-01T13:22:36;6.72;;;2.40;;
58681;SDS011;44460;40.162;18.294;2022-09-01T13:25:02;8.52;;;2.20;;
58681;SDS011;44460;40.162;18.294;2022-09-01T13:27:28;5.03;;;2.10;;
58681;SDS011;44460;40.162;18.294;2022-09-01T13:29:53;6.70;;;2.80;;
58681;SDS011;44460;40.162;18.294;2022-09-01T13:32:20;9.00;;;2.50;;
58681;SDS011;44460;40.162;18.294;2022-09-01T13:34:47;5.95;;;2.58;;
58681;SDS011;44460;40.162;18.294;2022-09-01T13:37:12;5.15;;;1.95;;
58681;SDS011;44460;40.162;18.294;2022-09-01T13:39:38;6.03;;;2.20;;
58681;SDS011;44460;40.162;18.294;2022-09-01T13:42:04;7.65;;;2.70;;
58681;SDS011;44460;40.162;18.294;2022-09-01T13:44:29;5.28;;;2.40;;
58681;SDS011;44460;40.162;18.294;2022-09-01T13:46:55;4.63;;;2.00;;
58681;SDS011;44460;40.162;18.294;2022-09-01T13:49:20;8.38;;;2.95;;
58681;SDS011;44460;40.162;18.294;2022-09-01T13:51:52;8.63;;;2.10;;
58681;SDS011;44460;40.162;18.294;2022-09-01T13:54:18;7.30;;;2.17;;
58681;SDS011;44460;40.162;18.294;2022-09-01T13:56:43;5.20;;;2.47;;
58681;SDS011;44460;40.162;18.294;2022-09-01T13:59:09;8.38;;;2.60;;
58681;SDS011;44460;40.162;18.294;2022-09-01T14:01:34;7.15;;;2.72;;
58681;SDS011;44460;40.162;18.294;2022-09-01T14:04:00;4.63;;;2.15;;
58681;SDS011;44460;40.162;18.294;2022-09-01T14:06:27;6.65;;;2.20;;
58681;SDS011;44460;40.162;18.294;2022-09-01T14:08:52;6.70;;;2.20;;
58681;SDS011;44460;40.162;18.294;2022-09-01T14:11:17;7.80;;;2.42;;
58681;SDS011;44460;40.162;18.294;2022-09-01T14:13:44;5.38;;;2.08;;
58681;SDS011;44460;40.162;18.294;2022-09-01T14:16:11;5.95;;;2.22;;
58681;SDS011;44460;40.162;18.294;2022-09-01T14:18:37;5.80;;;2.70;;
58681;SDS011;44460;40.162;18.294;2022-09-01T14:21:02;6.18;;;2.10;;
58681;SDS011;44460;40.162;18.294;2022-09-01T14:23:28;5.40;;;2.20;;
58681;SDS011;44460;40.162;18.294;2022-09-01T14:25:54;6.47;;;2.38;;
58681;SDS011;44460;40.162;18.294;2022-09-01T14:28:21;7.65;;;2.70;;
58681;SDS011;44460;40.162;18.294;2022-09-01T14:30:47;10.73;;;3.17;;
58681;SDS011;44460;40.162;18.294;2022-09-01T14:33:13;7.53;;;2.30;;
58681;SDS011;44460;40.162;18.294;2022-09-01T14:35:39;6.80;;;2.67;;
58681;SDS011;44460;40.162;18.294;2022-09-01T14:38:04;12.18;;;2.80;;
58681;SDS011;44460;40.162;18.294;2022-09-01T14:40:32;7.25;;;2.67;;
58681;SDS011;44460;40.162;18.294;2022-09-01T14:42:58;6.20;;;2.30;;
58681;SDS011;44460;40.162;18.294;2022-09-01T14:45:25;6.85;;;2.80;;
58681;SDS011;44460;40.162;18.294;2022-09-01T14:47:53;12.57;;;3.67;;
58681;SDS011;44460;40.162;18.294;2022-09-01T14:50:18;5.63;;;2.30;;
58681;SDS011;44460;40.162;18.294;2022-09-01T14:52:47;10.50;;;2.65;;
58681;SDS011;44460;40.162;18.294;2022-09-01T14:55:13;4.80;;;2.58;;
58681;SDS011;44460;40.162;18.294;2022-09-01T14:57:39;8.93;;;2.80;;
58681;SDS011;44460;40.162;18.294;2022-09-01T15:00:06;13.15;;;2.83;;
58681;SDS011;44460;40.162;18.294;2022-09-01T15:02:34;6.38;;;2.33;;
58681;SDS011;44460;40.162;18.294;2022-09-01T15:05:00;10.68;;;2.92;;
58681;SDS011;44460;40.162;18.294;2022-09-01T15:07:26;13.40;;;2.60;;
58681;SDS011;44460;40.162;18.294;2022-09-01T15:09:51;8.80;;;2.70;;
58681;SDS011;44460;40.162;18.294;2022-09-01T15:12:17;10.07;;;2.50;;
58681;SDS011;44460;40.162;18.294;2022-09-01T15:14:43;11.10;;;2.83;;
58681;SDS011;44460;40.162;18.294;2022-09-01T15:17:08;8.18;;;2.50;;
58681;SDS011;44460;40.162;18.294;2022-09-01T15:19:34;6.20;;;2.63;;
58681;SDS011;44460;40.162;18.294;2022-09-01T15:22:00;5.47;;;2.22;;
58681;SDS011;44460;40.162;18.294;2022-09-01T15:24:25;10.48;;;2.63;;
58681;SDS011;44460;40.162;18.294;2022-09-01T15:26:51;8.82;;;2.80;;
58681;SDS011;44460;40.162;18.294;2022-09-01T15:29:16;6.47;;;2.40;;
58681;SDS011;44460;40.162;18.294;2022-09-01T15:31:42;26.25;;;3.85;;
58681;SDS011;44460;40.162;18.294;2022-09-01T15:34:08;8.52;;;2.60;;
58681;SDS011;44460;40.162;18.294;2022-09-01T15:36:34;8.95;;;2.25;;
58681;SDS011;44460;40.162;18.294;2022-09-01T15:39:00;7.60;;;2.58;;
58681;SDS011;44460;40.162;18.294;2022-09-01T15:41:28;7.95;;;2.60;;
58681;SDS011;44460;40.162;18.294;2022-09-01T15:46:19;7.35;;;2.80;;
58681;SDS011;44460;40.162;18.294;2022-09-01T15:48:44;10.02;;;3.13;;
58681;SDS011;44460;40.162;18.294;2022-09-01T15:53:51;11.52;;;2.80;;
58681;SDS011;44460;40.162;18.294;2022-09-01T15:56:17;12.48;;;3.13;;
58681;SDS011;44460;40.162;18.294;2022-09-01T15:58:46;10.68;;;2.97;;
58681;SDS011;44460;40.162;18.294;2022-09-01T16:01:12;15.63;;;3.72;;
58681;SDS011;44460;40.162;18.294;2022-09-01T16:03:37;10.57;;;3.17;;
58681;SDS011;44460;40.162;18.294;2022-09-01T16:06:03;10.98;;;2.95;;
58681;SDS011;44460;40.162;18.294;2022-09-01T16:08:29;10.40;;;3.20;;
58681;SDS011;44460;40.162;18.294;2022-09-01T16:10:54;8.32;;;2.97;;